createdAt,value
2023-03-17T00:01:11.506Z,71.75
2023-03-17T00:03:45.699Z,71.29
2023-03-17T00:06:19.598Z,71.75
2023-03-17T00:08:52.338Z,71.19
2023-03-17T00:11:27.662Z,71.86
2023-03-17T00:14:00.382Z,71.39
2023-03-17T00:16:35.636Z,71.26
2023-03-17T00:19:08.331Z,71.60
2023-03-17T00:21:42.146Z,71.62
2023-03-17T00:24:16.077Z,71.51
2023-03-17T00:26:50.253Z,72.22
2023-03-17T00:29:23.030Z,72.14
2023-03-17T00:31:58.248Z,72.20
2023-03-17T00:34:31.128Z,72.13
2023-03-17T00:37:04.287Z,72.28
2023-03-17T00:39:37.279Z,72.31
2023-03-17T00:42:11.549Z,72.23
2023-03-17T00:44:44.746Z,72.35
2023-03-17T00:47:17.505Z,72.45
2023-03-17T00:49:50.206Z,72.62
2023-03-17T00:52:22.919Z,72.34
2023-03-17T00:54:56.025Z,72.05
2023-03-17T00:57:30.223Z,72.43
2023-03-17T01:00:03.330Z,72.08
2023-03-17T01:02:36.270Z,71.78
2023-03-17T01:05:09.141Z,71.99
2023-03-17T01:07:42.624Z,72.21
2023-03-17T01:10:17.296Z,72.29
2023-03-17T01:12:52.216Z,72.24
2023-03-17T01:15:25.580Z,72.11
2023-03-17T01:17:58.526Z,72.24
2023-03-17T01:20:32.822Z,72.32
2023-03-17T01:23:05.710Z,72.31
2023-03-17T01:25:39.288Z,72.02
2023-03-17T01:28:14.666Z,72.38
2023-03-17T01:30:47.530Z,72.63
2023-03-17T01:33:20.798Z,72.69
2023-03-17T01:35:53.670Z,72.32
2023-03-17T01:38:26.425Z,72.62
2023-03-17T01:40:59.530Z,72.69
2023-03-17T01:43:33.739Z,72.65
2023-03-17T01:46:18.430Z,72.58
2023-03-17T01:48:56.470Z,73.00
2023-03-17T01:51:33.133Z,73.07
2023-03-17T01:54:08.451Z,72.72
2023-03-17T01:56:43.324Z,72.90
2023-03-17T01:59:20.061Z,73.06
2023-03-17T02:01:56.733Z,72.99
2023-03-17T02:04:29.925Z,72.60
2023-03-17T02:07:03.818Z,73.09
2023-03-17T02:09:36.819Z,72.74
2023-03-17T02:12:10.684Z,72.89
2023-03-17T02:14:45.253Z,73.11
2023-03-17T02:17:18.134Z,73.00
2023-03-17T02:19:51.727Z,72.73
2023-03-17T02:22:26.250Z,73.20
2023-03-17T02:25:00.874Z,72.58
2023-03-17T02:27:35.905Z,73.03
2023-03-17T02:30:09.913Z,72.50
2023-03-17T02:32:43.456Z,72.64
2023-03-17T02:35:16.540Z,72.39
2023-03-17T02:37:50.622Z,72.18
2023-03-17T02:40:24.312Z,72.43
2023-03-17T02:42:57.688Z,72.12
2023-03-17T02:45:31.166Z,72.49
2023-03-17T02:48:04.094Z,72.19
2023-03-17T02:50:37.485Z,72.10
2023-03-17T02:53:11.663Z,72.15
2023-03-17T02:55:44.767Z,72.24
2023-03-17T02:58:17.465Z,72.51
2023-03-17T03:00:50.420Z,72.26
2023-03-17T03:03:23.414Z,72.60
2023-03-17T03:05:57.608Z,72.48
2023-03-17T03:08:32.183Z,72.24
2023-03-17T03:11:05.219Z,72.28
2023-03-17T03:13:39.028Z,72.35
2023-03-17T03:16:11.803Z,72.70
2023-03-17T03:18:44.782Z,72.60
2023-03-17T03:21:17.516Z,72.96
2023-03-17T03:23:51.764Z,72.73
2023-03-17T03:26:24.655Z,72.61
2023-03-17T03:28:57.454Z,73.04
2023-03-17T03:31:30.213Z,73.19
2023-03-17T03:34:03.392Z,72.98
2023-03-17T03:36:37.035Z,73.30
2023-03-17T03:39:14.199Z,73.36
2023-03-17T03:41:47.190Z,73.20
2023-03-17T03:44:19.932Z,73.36
2023-03-17T03:46:52.947Z,73.33
2023-03-17T03:49:25.725Z,73.38
2023-03-17T03:51:58.522Z,73.04
2023-03-17T03:54:32.649Z,72.92
2023-03-17T03:57:05.867Z,73.47
2023-03-17T03:59:39.146Z,73.31
2023-03-17T04:02:11.939Z,72.86
2023-03-17T04:04:44.765Z,73.08
2023-03-17T04:07:17.587Z,73.36
2023-03-17T04:09:51.703Z,73.27
2023-03-17T04:12:24.355Z,73.66
2023-03-17T04:14:57.286Z,73.10
2023-03-17T04:17:29.944Z,73.54
2023-03-17T04:20:03.044Z,73.72
2023-03-17T04:22:35.833Z,73.69
2023-03-17T04:25:10.747Z,73.40
2023-03-17T04:27:43.931Z,73.54
2023-03-17T04:30:17.172Z,73.28
2023-03-17T04:32:49.868Z,72.86
2023-03-17T04:35:22.905Z,72.89
2023-03-17T04:37:55.639Z,72.58
2023-03-17T04:40:30.120Z,72.57
2023-03-17T04:43:03.604Z,72.22
2023-03-17T04:45:36.677Z,72.33
2023-03-17T04:48:10.553Z,72.30
2023-03-17T04:50:44.432Z,72.49
2023-03-17T04:53:17.760Z,72.50
2023-03-17T04:55:52.342Z,72.56
2023-03-17T04:58:30.783Z,72.25
2023-03-17T05:01:03.944Z,72.54
2023-03-17T05:03:36.842Z,72.55
2023-03-17T05:06:09.688Z,72.51
2023-03-17T05:08:43.744Z,72.22
2023-03-17T05:11:18.283Z,72.30
2023-03-17T05:13:51.067Z,72.13
2023-03-17T05:16:23.888Z,71.68
2023-03-17T05:18:56.619Z,71.67
2023-03-17T05:21:29.323Z,71.95
2023-03-17T05:24:01.997Z,71.78
2023-03-17T05:26:36.532Z,71.52
2023-03-17T05:29:09.914Z,71.72
2023-03-17T05:31:43.358Z,71.19
2023-03-17T05:34:17.475Z,71.42
2023-03-17T05:36:50.748Z,71.30
2023-03-17T05:39:23.458Z,71.68
2023-03-17T05:41:58.055Z,71.66
2023-03-17T05:44:31.056Z,71.47
2023-03-17T05:47:03.882Z,71.59
2023-03-17T05:49:36.993Z,71.72
2023-03-17T05:52:09.966Z,71.78
2023-03-17T05:54:42.676Z,71.76
2023-03-17T05:57:17.104Z,72.25
2023-03-17T05:59:50.877Z,72.09
2023-03-17T06:02:23.891Z,72.05
2023-03-17T06:04:56.784Z,72.39
2023-03-17T06:07:38.173Z,72.57
2023-03-17T06:10:21.494Z,72.38
2023-03-17T06:12:55.754Z,72.53
2023-03-17T06:15:29.025Z,72.65
2023-03-17T06:18:02.001Z,73.03
2023-03-17T06:20:35.243Z,72.97
2023-03-17T06:23:08.054Z,73.28
2023-03-17T06:25:41.646Z,72.93
2023-03-17T06:28:15.765Z,73.33
2023-03-17T06:30:48.501Z,73.66
2023-03-17T06:33:22.133Z,73.96
2023-03-17T06:35:54.853Z,74.61
2023-03-17T06:38:27.628Z,74.93
2023-03-17T06:41:00.313Z,75.29
2023-03-17T06:43:34.461Z,75.92
2023-03-17T06:46:07.495Z,76.13
2023-03-17T06:48:40.400Z,75.78
2023-03-17T06:51:13.107Z,76.06
2023-03-17T06:53:45.904Z,76.17
2023-03-17T06:56:29.569Z,76.45
2023-03-17T06:59:05.229Z,77.03
2023-03-17T07:01:38.347Z,76.73
2023-03-17T07:04:11.235Z,77.18
2023-03-17T07:06:44.962Z,76.88
2023-03-17T07:09:17.657Z,76.89
2023-03-17T07:11:50.711Z,77.08
2023-03-17T07:14:25.746Z,77.03
2023-03-17T07:16:58.558Z,77.23
2023-03-17T07:19:31.973Z,77.35
2023-03-17T07:22:04.703Z,77.45
2023-03-17T07:24:37.473Z,76.89
2023-03-17T07:27:10.176Z,76.87
2023-03-17T07:29:44.395Z,76.89
2023-03-17T07:32:17.099Z,77.24
2023-03-17T07:34:50.106Z,77.14
2023-03-17T07:37:22.963Z,76.96
2023-03-17T07:39:56.209Z,76.83
2023-03-17T07:42:30.139Z,76.59
2023-03-17T07:45:05.982Z,76.74
2023-03-17T07:47:39.405Z,76.94
2023-03-17T07:50:12.523Z,76.95
2023-03-17T07:52:45.334Z,76.60
2023-03-17T07:55:18.139Z,76.06
2023-03-17T07:57:50.951Z,75.97
2023-03-17T08:00:27.125Z,76.08
2023-03-17T08:03:09.969Z,76.08
2023-03-17T08:05:44.663Z,75.89
2023-03-17T08:08:17.384Z,75.91
2023-03-17T08:10:50.184Z,76.09
2023-03-17T08:13:23.142Z,75.40
2023-03-17T08:15:57.236Z,76.35
2023-03-17T08:18:29.938Z,76.81
2023-03-17T08:21:02.852Z,76.37
2023-03-17T08:23:35.712Z,76.41
2023-03-17T08:26:08.629Z,76.79
2023-03-17T08:28:41.517Z,76.90
2023-03-17T08:31:17.216Z,76.91
2023-03-17T08:33:50.672Z,76.60
2023-03-17T08:36:24.049Z,76.03
2023-03-17T08:38:56.799Z,77.08
2023-03-17T08:41:29.571Z,74.89
2023-03-17T08:44:02.284Z,75.68
2023-03-17T08:46:36.947Z,75.84
2023-03-17T08:49:10.284Z,75.58
2023-03-17T08:51:44.181Z,75.60
2023-03-17T08:54:16.983Z,71.64
2023-03-17T08:56:50.032Z,71.37
2023-03-17T08:59:23.155Z,72.75
2023-03-17T09:01:57.225Z,71.80
2023-03-17T09:04:29.909Z,72.20
2023-03-17T09:07:04.207Z,72.12
2023-03-17T09:09:37.593Z,72.68
2023-03-17T09:12:11.265Z,72.96
2023-03-17T09:14:45.238Z,72.18
2023-03-17T09:17:20.400Z,71.99
2023-03-17T09:19:53.206Z,70.36
2023-03-17T09:22:26.256Z,70.00
2023-03-17T09:24:59.275Z,70.70
2023-03-17T09:27:32.132Z,70.40
2023-03-17T09:30:06.005Z,70.84
2023-03-17T09:32:40.281Z,69.71
2023-03-17T09:35:12.970Z,72.66
2023-03-17T09:37:45.655Z,73.06
2023-03-17T09:40:19.772Z,72.98
2023-03-17T09:42:59.295Z,72.73
2023-03-17T09:45:34.712Z,72.75
2023-03-17T09:48:18.483Z,72.41
2023-03-17T09:50:55.105Z,71.01
2023-03-17T09:53:34.011Z,71.15
2023-03-17T09:56:08.919Z,72.78
2023-03-17T09:58:43.410Z,73.53
2023-03-17T10:01:16.334Z,74.08
2023-03-17T10:03:51.597Z,74.65
2023-03-17T10:06:32.270Z,71.95
2023-03-17T10:09:09.533Z,73.46
2023-03-17T10:11:43.087Z,70.04
2023-03-17T10:14:24.873Z,72.16
2023-03-17T10:17:01.849Z,71.69
2023-03-17T10:19:39.561Z,71.76
2023-03-17T10:22:16.000Z,72.71
2023-03-17T10:24:51.832Z,73.76
2023-03-17T10:27:24.556Z,73.57
2023-03-17T10:29:57.733Z,72.81
2023-03-17T10:32:31.971Z,74.28
2023-03-17T10:35:06.960Z,73.44
2023-03-17T10:37:43.358Z,74.51
2023-03-17T10:40:22.035Z,72.03
2023-03-17T10:42:56.976Z,73.22
2023-03-17T10:45:30.912Z,73.25
2023-03-17T10:48:04.350Z,73.87
2023-03-17T10:50:39.724Z,74.08
2023-03-17T10:53:28.591Z,71.62
2023-03-17T10:56:08.112Z,73.84
2023-03-17T10:58:44.338Z,73.49
2023-03-17T11:01:20.371Z,70.53
2023-03-17T11:03:53.142Z,71.79
2023-03-17T11:06:34.111Z,70.02
2023-03-17T11:09:09.380Z,74.06
2023-03-17T11:11:46.619Z,73.53
2023-03-17T11:14:20.234Z,73.61
2023-03-17T11:16:54.600Z,72.67
2023-03-17T11:19:32.823Z,73.14
2023-03-17T11:22:12.037Z,75.48
2023-03-17T11:24:51.696Z,71.75
2023-03-17T11:27:30.213Z,71.72
2023-03-17T11:30:20.899Z,67.11
2023-03-17T11:32:58.199Z,70.67
2023-03-17T11:35:37.314Z,73.59
2023-03-17T11:38:17.927Z,72.14
2023-03-17T11:40:59.620Z,71.46
2023-03-17T11:43:35.766Z,70.46
2023-03-17T11:46:10.548Z,68.09
2023-03-17T11:48:49.584Z,70.27
2023-03-17T11:51:27.652Z,70.03
2023-03-17T11:54:08.085Z,70.41
2023-03-17T11:56:42.865Z,68.63
2023-03-17T11:59:19.838Z,71.61
2023-03-17T12:01:56.643Z,70.84
2023-03-17T12:04:34.449Z,70.73
2023-03-17T12:07:15.516Z,68.99
2023-03-17T12:09:53.623Z,69.31
2023-03-17T12:12:29.562Z,72.63
2023-03-17T12:15:05.355Z,74.69
2023-03-17T12:17:40.452Z,73.25
2023-03-17T12:20:18.424Z,71.67
2023-03-17T12:22:57.137Z,69.80
2023-03-17T12:25:33.143Z,72.03
2023-03-17T12:28:11.037Z,70.58
2023-03-17T12:30:48.484Z,72.51
2023-03-17T12:33:23.655Z,73.18
2023-03-17T12:35:58.359Z,70.24
2023-03-17T12:38:36.384Z,69.51
2023-03-17T12:41:21.978Z,70.56
2023-03-17T12:44:00.874Z,72.40
2023-03-17T12:46:44.361Z,67.91
2023-03-17T12:49:32.006Z,70.03
2023-03-17T12:52:14.220Z,73.41
2023-03-17T12:54:47.974Z,64.79
2023-03-17T12:57:24.324Z,66.38
2023-03-17T12:59:59.897Z,65.06
2023-03-17T13:02:36.614Z,68.32
2023-03-17T13:05:11.851Z,70.79
2023-03-17T13:07:50.217Z,70.76
2023-03-17T13:10:38.364Z,71.68
2023-03-17T13:13:23.283Z,71.90
2023-03-17T13:16:00.492Z,71.90
2023-03-17T13:18:51.750Z,72.58
2023-03-17T13:21:26.412Z,71.73
2023-03-17T13:24:01.362Z,71.44
2023-03-17T13:27:04.673Z,71.43
2023-03-17T13:29:54.458Z,73.38
2023-03-17T13:32:45.529Z,72.65
2023-03-17T13:35:22.234Z,72.85
2023-03-17T13:38:21.093Z,73.24
2023-03-17T13:40:59.966Z,73.94
2023-03-17T13:43:43.523Z,72.21
2023-03-17T13:46:21.242Z,72.33
2023-03-17T13:48:55.076Z,71.86
2023-03-17T13:51:33.736Z,72.83
2023-03-17T13:54:10.647Z,72.00
2023-03-17T13:56:50.133Z,75.28
2023-03-17T13:59:24.712Z,75.25
2023-03-17T14:02:01.437Z,75.72
2023-03-17T14:04:38.645Z,76.79
2023-03-17T14:07:16.894Z,76.59
2023-03-17T14:09:52.205Z,77.14
2023-03-17T14:12:29.260Z,76.05
2023-03-17T14:15:07.063Z,76.86
2023-03-17T14:17:46.111Z,75.89
2023-03-17T14:20:24.206Z,76.91
2023-03-17T14:22:58.219Z,75.29
2023-03-17T14:25:33.304Z,74.59
2023-03-17T14:28:10.976Z,72.18
2023-03-17T14:30:51.758Z,72.58
2023-03-17T14:33:27.297Z,72.57
2023-03-17T14:36:01.323Z,72.12
2023-03-17T14:38:35.415Z,72.21
2023-03-17T14:41:09.288Z,72.63
2023-03-17T14:43:42.842Z,72.96
2023-03-17T14:46:17.461Z,74.29
2023-03-17T14:48:53.120Z,74.16
2023-03-17T14:51:27.840Z,74.70
2023-03-17T14:54:02.157Z,72.25
2023-03-17T14:56:37.040Z,72.66
2023-03-17T14:59:18.522Z,71.76
2023-03-17T15:01:54.881Z,73.89
2023-03-17T15:04:30.545Z,72.92
2023-03-17T15:07:04.604Z,74.26
2023-03-17T15:09:41.692Z,72.23
2023-03-17T15:12:17.247Z,72.23
2023-03-17T15:14:51.925Z,72.13
2023-03-17T15:17:28.344Z,72.85
2023-03-17T15:20:05.521Z,72.11
2023-03-17T15:22:42.539Z,72.20
2023-03-17T15:25:19.610Z,71.91
2023-03-17T15:27:53.053Z,72.43
2023-03-17T15:30:29.484Z,72.70
2023-03-17T15:33:05.269Z,72.65
2023-03-17T15:35:39.583Z,72.65
2023-03-17T15:38:12.638Z,72.99
2023-03-17T15:40:45.807Z,72.14
2023-03-17T15:43:18.968Z,72.78
2023-03-17T15:45:54.971Z,72.17
2023-03-17T15:48:29.854Z,71.98
2023-03-17T15:51:05.897Z,71.96
2023-03-17T15:53:38.641Z,71.67
2023-03-17T15:56:16.433Z,71.08
2023-03-17T15:58:51.661Z,71.13
2023-03-17T16:01:27.660Z,73.39
2023-03-17T16:04:00.661Z,73.06
2023-03-17T16:06:35.651Z,73.82
2023-03-17T16:09:15.572Z,74.36
2023-03-17T16:11:48.239Z,74.07
2023-03-17T16:14:21.196Z,74.20
2023-03-17T16:16:53.942Z,73.72
2023-03-17T16:19:26.721Z,74.44
2023-03-17T16:22:00.924Z,73.61
2023-03-17T16:24:33.600Z,72.89
2023-03-17T16:27:14.300Z,72.36
2023-03-17T16:29:47.005Z,71.81
2023-03-17T16:32:19.921Z,72.42
2023-03-17T16:34:52.692Z,71.86
2023-03-17T16:37:26.792Z,71.85
2023-03-17T16:39:59.517Z,72.47
2023-03-17T16:42:32.557Z,72.02
2023-03-17T16:45:05.642Z,72.21
2023-03-17T16:47:38.331Z,72.24
2023-03-17T16:50:15.407Z,72.31
2023-03-17T16:52:49.535Z,71.59
2023-03-17T16:55:22.992Z,71.24
2023-03-17T16:57:57.403Z,71.05
2023-03-17T17:00:31.243Z,70.86
2023-03-17T17:03:04.254Z,71.16
2023-03-17T17:05:37.051Z,70.54
2023-03-17T17:08:11.583Z,70.52
2023-03-17T17:10:44.309Z,70.69
2023-03-17T17:13:17.540Z,70.94
2023-03-17T17:15:50.367Z,70.79
2023-03-17T17:18:24.624Z,70.63
2023-03-17T17:20:57.889Z,70.86
2023-03-17T17:23:32.501Z,70.83
2023-03-17T17:26:05.329Z,70.52
2023-03-17T17:28:39.588Z,70.36
2023-03-17T17:31:12.402Z,70.57
2023-03-17T17:33:45.463Z,70.61
2023-03-17T17:36:18.490Z,70.18
2023-03-17T17:38:52.804Z,70.38
2023-03-17T17:41:25.701Z,70.54
2023-03-17T17:43:58.437Z,70.33
2023-03-17T17:46:31.352Z,70.63
2023-03-17T17:49:05.257Z,70.77
2023-03-17T17:51:37.992Z,70.90
2023-03-17T17:54:12.444Z,70.71
2023-03-17T17:56:46.963Z,71.02
2023-03-17T17:59:19.690Z,70.81
2023-03-17T18:01:52.347Z,71.30
2023-03-17T18:04:25.884Z,70.48
2023-03-17T18:06:58.571Z,71.00
2023-03-17T18:09:32.872Z,70.88
2023-03-17T18:12:05.828Z,70.56
2023-03-17T18:14:38.583Z,70.97
2023-03-17T18:17:11.336Z,70.97
2023-03-17T18:19:44.176Z,71.16
2023-03-17T18:22:17.375Z,71.06
2023-03-17T18:24:51.866Z,70.98
2023-03-17T18:27:24.648Z,71.05
2023-03-17T18:29:58.487Z,71.18
2023-03-17T18:32:31.389Z,71.27
2023-03-17T18:35:08.961Z,71.19
2023-03-17T18:37:41.970Z,71.33
2023-03-17T18:40:32.196Z,71.40
2023-03-17T18:43:04.954Z,71.41
2023-03-17T18:45:37.993Z,71.50
2023-03-17T18:48:10.701Z,71.76
2023-03-17T18:50:43.453Z,72.06
2023-03-17T18:53:16.111Z,72.01
2023-03-17T18:55:50.541Z,72.16
2023-03-17T18:58:23.332Z,72.46
2023-03-17T19:00:58.964Z,72.46
2023-03-17T19:03:32.480Z,72.31
2023-03-17T19:06:08.745Z,72.57
2023-03-17T19:08:41.522Z,72.34
2023-03-17T19:11:16.977Z,72.42
2023-03-17T19:13:49.950Z,72.40
2023-03-17T19:16:28.956Z,72.38
2023-03-17T19:19:02.161Z,72.14
2023-03-17T19:21:34.896Z,72.09
2023-03-17T19:24:09.720Z,72.36
2023-03-17T19:26:45.403Z,72.45
2023-03-17T19:29:18.223Z,72.76
2023-03-17T19:31:51.365Z,72.61
2023-03-17T19:34:24.211Z,72.56
2023-03-17T19:36:57.042Z,73.05
2023-03-17T19:39:31.353Z,72.67
2023-03-17T19:42:05.836Z,73.03
2023-03-17T19:44:38.545Z,72.75
2023-03-17T19:47:11.297Z,73.22
2023-03-17T19:49:44.349Z,72.80
2023-03-17T19:52:18.138Z,73.26
2023-03-17T19:54:50.923Z,73.28
2023-03-17T19:57:25.384Z,73.34
2023-03-17T19:59:58.394Z,73.00
2023-03-17T20:02:31.392Z,73.15
2023-03-17T20:05:04.656Z,73.18
2023-03-17T20:07:37.606Z,73.02
2023-03-17T20:10:11.644Z,72.79
2023-03-17T20:12:46.124Z,73.03
2023-03-17T20:15:19.372Z,73.09
2023-03-17T20:17:52.028Z,72.83
2023-03-17T20:20:24.700Z,72.90
2023-03-17T20:22:57.397Z,72.66
2023-03-17T20:25:30.036Z,72.93
2023-03-17T20:28:05.571Z,72.71
2023-03-17T20:30:38.386Z,72.59
2023-03-17T20:33:12.493Z,72.14
2023-03-17T20:35:46.748Z,72.44
2023-03-17T20:38:19.663Z,72.54
2023-03-17T20:40:52.694Z,72.47
2023-03-17T20:43:27.267Z,72.40
2023-03-17T20:45:59.928Z,72.27
2023-03-17T20:48:32.734Z,72.59
2023-03-17T20:51:06.597Z,72.27
2023-03-17T20:53:39.349Z,72.71
2023-03-17T20:56:13.782Z,72.59
2023-03-17T20:58:48.539Z,72.87
2023-03-17T21:01:22.134Z,72.72
2023-03-17T21:03:54.981Z,72.46
2023-03-17T21:06:28.561Z,73.00
2023-03-17T21:09:01.796Z,72.56
2023-03-17T21:11:34.805Z,73.13
2023-03-17T21:14:09.146Z,73.66
2023-03-17T21:16:45.109Z,73.30
2023-03-17T21:19:19.717Z,73.65
2023-03-17T21:21:52.582Z,73.43
2023-03-17T21:24:26.777Z,73.47
2023-03-17T21:27:00.193Z,73.22
2023-03-17T21:29:34.924Z,73.52
2023-03-17T21:32:08.540Z,73.75
2023-03-17T21:34:41.773Z,73.66
2023-03-17T21:37:16.045Z,72.92
2023-03-17T21:39:48.943Z,73.31
2023-03-17T21:42:21.798Z,73.39
2023-03-17T21:44:56.417Z,73.75
2023-03-17T21:47:30.251Z,73.46
2023-03-17T21:50:03.768Z,73.35
2023-03-17T21:52:37.005Z,72.93
2023-03-17T21:55:10.686Z,73.17
2023-03-17T21:57:43.554Z,73.20
2023-03-17T22:00:18.262Z,73.07
2023-03-17T22:02:51.386Z,73.62
2023-03-17T22:05:24.142Z,73.54
2023-03-17T22:07:57.215Z,73.68
2023-03-17T22:10:30.104Z,73.78
2023-03-17T22:13:03.433Z,73.59
2023-03-17T22:15:37.742Z,73.65
2023-03-17T22:18:10.653Z,73.90
2023-03-17T22:20:44.876Z,74.53
2023-03-17T22:23:18.093Z,74.68
2023-03-17T22:25:51.018Z,74.24
2023-03-17T22:28:24.294Z,74.58
2023-03-17T22:30:58.517Z,74.53
2023-03-17T22:33:31.213Z,74.30
2023-03-17T22:36:04.044Z,74.32
2023-03-17T22:38:36.763Z,73.24
2023-03-17T22:41:10.450Z,73.90
2023-03-17T22:43:43.214Z,73.88
2023-03-17T22:46:17.485Z,73.19
2023-03-17T22:48:50.461Z,73.98
2023-03-17T22:51:24.237Z,72.88
2023-03-17T22:53:57.349Z,73.73
2023-03-17T22:56:30.131Z,73.52
2023-03-17T22:59:03.091Z,73.77
2023-03-17T23:01:37.227Z,73.76
2023-03-17T23:04:10.223Z,73.90
2023-03-17T23:06:43.533Z,73.78
2023-03-17T23:09:16.179Z,73.32
2023-03-17T23:11:48.895Z,74.16
2023-03-17T23:14:21.655Z,74.69
2023-03-17T23:16:55.931Z,73.97
2023-03-17T23:19:28.617Z,74.21
2023-03-17T23:22:01.870Z,74.43
2023-03-17T23:24:34.589Z,74.26
2023-03-17T23:27:08.027Z,74.09
2023-03-17T23:29:41.218Z,73.97
2023-03-17T23:32:16.313Z,74.21
2023-03-17T23:34:49.037Z,73.28
2023-03-17T23:37:21.806Z,73.30
2023-03-17T23:39:55.078Z,73.16
2023-03-17T23:42:29.185Z,73.03
2023-03-17T23:45:02.131Z,73.01
2023-03-17T23:47:36.577Z,72.82
2023-03-17T23:50:10.332Z,72.60
2023-03-17T23:52:43.624Z,72.57
2023-03-17T23:55:17.205Z,73.15
2023-03-17T23:57:50.407Z,73.11
